METAR Data
IDs: Format: Raw Decoded Include TAF

Data at: 1040 UTC 26 Sep 2018

KM40 261035Z AUTO 00000KT 10SM OVC009 23/23 A3002 RMK AO2
KM40 261015Z AUTO 00000KT 10SM OVC011 23/23 A3002 RMK AO2
KM40 260955Z AUTO 00000KT 10SM OVC012 23/23 A3002 RMK AO2
KM40 260935Z AUTO 00000KT 7SM BKN013 OVC019 23/23 A3003 RMK AO2
KM40 260915Z AUTO 00000KT 9SM SCT017 BKN021 OVC029 23/23 A3003 RMK AO2
KM40 260855Z AUTO 00000KT 10SM FEW014 BKN030 OVC045 23/23 A3003 RMK AO2
KM40 260835Z AUTO 00000KT 9SM SCT007 BKN014 OVC060 23/23 A3003 RMK AO2
KM40 260815Z AUTO 00000KT 10SM BKN008 OVC013 23/23 A3004 RMK AO2
KM40 260755Z AUTO 00000KT 10SM BKN009 BKN060 OVC075 23/23 A3004 RMK AO2
KM40 260735Z AUTO 00000KT 10SM SCT011 BKN060 OVC090 23/23 A3004 RMK AO2
KM40 260715Z AUTO 21004KT 10SM OVC012 23/23 A3004 RMK AO2
KM40 260655Z AUTO 17004KT 10SM BKN010 OVC015 23/23 A3004 RMK AO2
KM40 260635Z AUTO 18004KT 10SM SCT010 OVC014 23/23 A3005 RMK AO2
KM40 260615Z AUTO 16004KT 10SM BKN015 BKN065 BKN120 23/23 A3005 RMK AO2
KM40 260555Z AUTO 17006KT 10SM FEW065 SCT120 23/23 A3005 RMK AO2
KM40 260535Z AUTO 20004KT 10SM FEW041 FEW060 BKN110 24/24 A3006 RMK AO2
KM40 260515Z AUTO 16006KT 10SM FEW039 SCT055 OVC070 24/24 A3006 RMK AO2
KM40 260455Z AUTO 16006KT 10SM OVC070 24/24 A3007 RMK AO2
KM40 260435Z AUTO 15004KT 10SM OVC075 24/24 A3007 RMK AO2
KM40 260415Z AUTO 15004KT 10SM BKN075 OVC110 24/24 A3008 RMK AO2
KM40 260355Z AUTO 17003KT 10SM SCT075 BKN090 OVC120 23/23 A3007 RMK AO2
KM40 260335Z AUTO 16003KT 10SM BKN070 OVC090 23/23 A3007 RMK AO2
KM40 260315Z AUTO 12003KT 10SM OVC075 23/23 A3007 RMK AO2
KM40 260255Z AUTO 00000KT 10SM SCT070 BKN075 OVC100 23/24 A3007 RMK AO2
KM40 260235Z AUTO 00000KT 10SM FEW080 OVC100 23/23 A3006 RMK AO2
KM40 260215Z AUTO 00000KT 10SM BKN090 OVC110 23/23 A3006 RMK AO2
KM40 260155Z AUTO 00000KT 10SM BKN085 BKN110 24/24 A3005 RMK AO2
KM40 260135Z AUTO 00000KT 10SM FEW095 24/24 A3004 RMK AO2
KM40 260115Z AUTO 15005KT 10SM SCT110 24/24 A3003 RMK AO2
KM40 260055Z AUTO 15005KT 10SM BKN110 25/25 A3003 RMK AO2
KM40 260035Z AUTO 16005KT 10SM OVC110 25/25 A3002 RMK AO2
KM40 260015Z AUTO 00000KT 10SM OVC110 25/25 A3003 RMK AO2
KM40 252355Z AUTO 18006KT 10SM BKN110 26/26 A3002 RMK AO2
KM40 252335Z AUTO 15004KT 10SM SCT100 26/27 A3001 RMK AO2
KM40 252315Z AUTO 20005KT 10SM FEW110 27/27 A3001 RMK AO2
KM40 252255Z AUTO 19004KT 10SM CLR 27/27 A3001 RMK AO2
KM40 252235Z AUTO 21005KT 10SM FEW090 27/27 A3001 RMK AO2
KM40 252215Z AUTO 19008KT 10SM SCT085 27/27 A3002 RMK AO2
KM40 252155Z AUTO 18008KT 10SM SCT080 27/27 A3001 RMK AO2
KM40 252135Z AUTO 19007KT 10SM CLR 28/28 A3000 RMK AO2
KM40 252115Z AUTO 19006KT 10SM CLR 28/27 A3000 RMK AO2
KM40 252055Z AUTO 16007KT 10SM FEW015 28/28 A3001 RMK AO2
KM40 252035Z AUTO 16006KT 10SM FEW007 FEW012 FEW055 26/26 A3001 RMK AO2
KM40 252015Z AUTO 18004KT 9SM FEW007 SCT080 BKN120 25/25 A3003 RMK AO2
KM40 251955Z AUTO 18006KT 10SM FEW055 FEW065 SCT120 25/25 A3003 RMK AO2
KM40 251935Z AUTO 18004KT 10SM FEW050 FEW065 25/25 A3004 RMK AO2
KM40 251915Z AUTO 00000KT 7SM -DZ FEW030 FEW039 BKN050 25/25 A3004 RMK AO2
KM40 251855Z AUTO 15005KT 10SM FEW041 BKN050 BKN060 26/26 A3005 RMK AO2
KM40 251835Z AUTO 16007KT 10SM SCT033 BKN050 OVC095 27/27 A3006 RMK AO2
KM40 251815Z AUTO 21007KT 10SM FEW024 BKN055 OVC075 28/28 A3006 RMK AO2
KM40 251755Z AUTO 16007KT 10SM FEW021 SCT032 BKN080 28/28 A3005 RMK AO2
KM40 251735Z AUTO 15006G13KT 10SM FEW026 SCT030 BKN090 28/28 A3007 RMK AO2
KM40 251715Z AUTO 16010KT 10SM SCT018 BKN025 BKN029 28/28 A3007 RMK AO2
KM40 251655Z AUTO 17010KT 10SM BKN016 OVC022 27/27 A3008 RMK AO2
KM40 251635Z AUTO 15007KT 10SM OVC015 26/26 A3008 RMK AO2
KM40 251615Z AUTO 17009KT 10SM BKN013 OVC018 26/26 A3008 RMK AO2
KM40 251555Z AUTO 17007KT 10SM OVC014 26/26 A3008 RMK AO2
KM40 251535Z AUTO 16010KT 10SM OVC012 25/25 A3008 RMK AO2
KM40 251515Z AUTO 15006KT 10SM BKN010 OVC013 25/25 A3008 RMK AO2
KM40 251455Z AUTO 16007KT 10SM BKN010 OVC013 24/24 A3009 RMK AO2
KM40 251435Z AUTO 17008KT 10SM OVC010 24/24 A3009 RMK AO2
KM40 251415Z AUTO 16006KT 10SM OVC010 24/24 A3009 RMK AO2
KM40 251355Z AUTO 17006KT 10SM BKN009 OVC013 24/24 A3008 RMK AO2
KM40 251335Z AUTO 15007KT 10SM BKN008 OVC012 24/24 A3008 RMK AO2
KM40 251315Z AUTO 16008KT 9SM OVC008 23/24 A3008 RMK AO2
KM40 251255Z AUTO 15006KT 9SM OVC010 24/24 A3007 RMK AO2
KM40 251235Z AUTO 15006KT 9SM OVC008 23/23 A3007 RMK AO2
KM40 251215Z AUTO VRB05KT 10SM OVC008 23/23 A3007 RMK AO2
KM40 251155Z AUTO 16009KT 9SM OVC008 23/23 A3006 RMK AO2
KM40 251135Z AUTO 16006KT 10SM OVC007 23/23 A3005 RMK AO2
KM40 251115Z AUTO 15006KT 10SM OVC007 23/23 A3005 RMK AO2
KM40 251055Z AUTO 15006KT 10SM OVC007 23/23 A3005 RMK AO2
KM40 251035Z AUTO 15005KT 10SM OVC007 23/23 A3004 RMK AO2
KM40 251015Z AUTO 15004KT 10SM OVC008 23/23 A3004 RMK AO2
KM40 250955Z AUTO 15005KT 10SM OVC009 23/23 A3004 RMK AO2
KM40 250935Z AUTO 15005KT 10SM BKN009 BKN029 OVC033 23/23 A3004 RMK AO2
KM40 250915Z AUTO 14005KT 10SM BKN008 OVC028 23/23 A3004 RMK AO2
KM40 250855Z AUTO 15004KT 9SM OVC007 23/23 A3004 RMK AO2
KM40 250835Z AUTO 16006KT 5SM BR OVC007 23/23 A3005 RMK AO2
KM40 250815Z AUTO 17006KT 10SM OVC008 23/23 A3004 RMK AO2
KM40 250735Z AUTO 14003KT 10SM OVC010 23/23 A3004 RMK AO2
KM40 250715Z AUTO 15006KT 10SM OVC010 23/23 A3004 RMK AO2
KM40 250655Z AUTO 14006KT 10SM OVC009 23/23 A3004 RMK AO2
KM40 250635Z AUTO 14005KT 10SM OVC009 22/22 A3004 RMK AO2
KM40 250615Z AUTO 16006KT 10SM OVC009 22/22 A3004 RMK AO2
KM40 250555Z AUTO 15005KT 10SM OVC010 22/22 A3004 RMK AO2
KM40 250515Z AUTO 14003KT 10SM OVC009 22/22 A3004 RMK AO2
KM40 250455Z AUTO 13003KT 10SM OVC012 22/22 A3003 RMK AO2
KM40 250435Z AUTO 13006KT 10SM SCT013 22/22 A3003 RMK AO2
KM40 250415Z AUTO 15005KT 10SM CLR 22/22 A3003 RMK AO2
KM40 250355Z AUTO 16005KT 10SM CLR 22/22 A3003 RMK AO2
KM40 250335Z AUTO 15005KT 10SM CLR 23/23 A3002 RMK AO2
KM40 250315Z AUTO 14006KT 10SM CLR 23/23 A3001 RMK AO2
KM40 250255Z AUTO 15008G13KT 10SM CLR 23/23 A3000 RMK AO2
KM40 250235Z AUTO 14008G13KT 10SM CLR 23/24 A3000 RMK AO2
KM40 250215Z AUTO 14007KT 10SM CLR 23/24 A3000 RMK AO2
KM40 250155Z AUTO 13004KT 10SM FEW095 24/24 A3000 RMK AO2
KM40 250135Z AUTO VRB03KT 10SM SCT095 24/24 A3000 RMK AO2
KM40 250115Z AUTO 13004KT 10SM FEW065 SCT085 BKN100 24/24 A2999 RMK AO2
KM40 250055Z AUTO 00000KT 10SM SCT075 SCT085 24/24 A2998 RMK AO2
KM40 250035Z AUTO 14003KT 10SM OVC075 24/24 A2997 RMK AO2
KM40 250015Z AUTO 00000KT 10SM SCT060 BKN075 OVC085 24/24 A2996 RMK AO2
KM40 242355Z AUTO 00000KT 9SM SCT060 SCT080 SCT095 24/24 A2996 RMK AO2
KM40 242335Z AUTO 00000KT 10SM CLR 25/25 A2998 RMK AO2
KM40 242315Z AUTO 16004KT 10SM FEW042 SCT090 SCT120 25/25 A2998 RMK AO2
KM40 242255Z AUTO 16005KT 5SM -RA FEW011 SCT031 BKN085 25/25 A2998 RMK AO2